Aérodrome :
LOGIN :

S'inscrire | Disclaimer

   EN    FR    IT 

 










Légende :    VFR   VFR Marginal   IFR   IFR Intensif   IFR Très Intensif
Visi : 
Plafond : 
>= 8 km
>= 3000ft
5 à 8 km
1000 à 3000 ft
1500m à 5 km
500 à 1000 ft
800 à 1500m
200 à 500 ft
< 800m
< 200 ft
Symboles :   Orages  Brouillard  Fortes neiges  Fortes précipitations  Vent > 20 kt
SIGMETs :   Divers  Orages  Givrage  Turbulence  Onde Orograph.  Cendres Volcan.






- Altitude de l'aérodrome : 12 ft
- Code IATA : BCN


LEBL - Barcelone

DERNIER METAR :
  • 190130Z 33009KT 9999 FEW017 20/12 Q1015 NOSIG

METARs EXPIRÉS :
  • 190100Z 34012KT 9999 FEW016 20/14 Q1015 NOSIG
  • 190030Z 01006KT 9999 FEW016 21/17 Q1015 NOSIG
  • 190000Z 33005KT 300V030 9999 FEW016 21/19 Q1015 NOSIG
  • 182330Z 31005KT 9999 FEW016 21/19 Q1014 NOSIG
  • 182300Z 34003KT 310V010 9999 FEW016 21/20 Q1014 NOSIG

TAF TAF LEBL
Valide du 19 à 00h jusqu'au 20 à 00h UTC


182300Z 1900/1924 34009KT 9999 SCT025 TX26/1912Z TN18/1906Z
PROB30
TEMPO 1900/1905 10008KT 4000 SHRA FEW015TCU
BECMG 1911/1913 18010KT



MET'MAP, la Météo Aéronautique d'un coup d'oeil ! - Copyright ORBIFLY Décembre 2007 - Disclaimer

ORBIFLY MET'MAP TEAM :

Programmation & Développement : Alexandra Zaïnal
Sur une idée originale de : Baudouin d'Aumeries
Assistance à la programmation : Marc-Olivier Méhu
Soutien technique & logistique : Manuel Goepfert

Contact : metmap@orbifly.com




SOURCES & CREDITS :

   NOAA